Etusivu
METAR-TAF:

METAR-TAF

Lentoasemat :

Hope, Brittiläinen Kolumbia, Kanada

Leveyspiiri: 49-22N, Pituuspiiri: 121-29W, korkeus merenpinnasta: 39 m

Tämänhetkinen sää

Tämä raportti tehtiin 59 minuuttia sitten, kello 09.00 UTC
Tuuli 7 kn lännestä, vaihdellen lounaan ja luoteen välillä
Lämpötila 10°C
Kosteus 50%
Ilmanpaine 1017 hPa
Näkyvyys: 14.5 km
Pilvistä 6500 ft:n korkeudessa

METAR: CYHE 070900Z AUTO 28007KT 230V320 9SM OVC065 10/00 A3004 RMK SLP175

Aika: 02:59 (09:59 UTC)


TAF: puuttuu

Säähavainnot ja -ennusteet yli 4000 lentoasemalta (METAR- ja TAF-raportit).

Käytössä olevat sääasemat on merkitty karttaan keltaisilla ja punaisilla pisteillä.

Aseta hiiri pisteen päälle nähdäksesi sääaseman nimen.

Klikkaa sitten nähdäksesi säähavainnot ja -ennusteet.

Kartan vaihtaminen: klikkaa mustalla rastilla varustettuja vihreitä pisteitä, niin voit zoomata sisään; viivalla varustettua vihreää pistettä, niin voit zoomata ulos tai vihreitä nuolia, niin pääset viereisille kartoille.


METAR-TAF: